sensor_id;sensor_type;location;lat;lon;timestamp;P1;durP1;ratioP1;P2;durP2;ratioP2
34278;SDS011;20538;51.528;9.942;2023-04-30T00:02:18;14.93;;;6.78;;
34278;SDS011;20538;51.528;9.942;2023-04-30T00:04:44;10.88;;;7.10;;
34278;SDS011;20538;51.528;9.942;2023-04-30T00:07:10;15.55;;;8.30;;
34278;SDS011;20538;51.528;9.942;2023-04-30T00:09:36;15.27;;;7.80;;
34278;SDS011;20538;51.528;9.942;2023-04-30T00:12:01;14.07;;;8.38;;
34278;SDS011;20538;51.528;9.942;2023-04-30T00:14:27;14.20;;;7.80;;
34278;SDS011;20538;51.528;9.942;2023-04-30T00:16:53;14.45;;;7.80;;
34278;SDS011;20538;51.528;9.942;2023-04-30T00:19:18;16.25;;;7.80;;
34278;SDS011;20538;51.528;9.942;2023-04-30T00:21:44;17.58;;;8.43;;
34278;SDS011;20538;51.528;9.942;2023-04-30T00:24:10;15.18;;;8.07;;
34278;SDS011;20538;51.528;9.942;2023-04-30T00:26:35;21.02;;;7.85;;
34278;SDS011;20538;51.528;9.942;2023-04-30T00:29:01;16.40;;;8.07;;
34278;SDS011;20538;51.528;9.942;2023-04-30T00:31:26;16.92;;;7.70;;
34278;SDS011;20538;51.528;9.942;2023-04-30T00:33:52;17.40;;;8.23;;
34278;SDS011;20538;51.528;9.942;2023-04-30T00:36:18;20.50;;;10.70;;
34278;SDS011;20538;51.528;9.942;2023-04-30T00:38:43;13.77;;;7.63;;
34278;SDS011;20538;51.528;9.942;2023-04-30T00:41:09;17.83;;;7.28;;
34278;SDS011;20538;51.528;9.942;2023-04-30T00:43:35;17.05;;;8.55;;
34278;SDS011;20538;51.528;9.942;2023-04-30T00:46:00;14.77;;;8.15;;
34278;SDS011;20538;51.528;9.942;2023-04-30T00:48:27;16.88;;;7.88;;
34278;SDS011;20538;51.528;9.942;2023-04-30T00:50:53;15.60;;;8.77;;
34278;SDS011;20538;51.528;9.942;2023-04-30T00:53:18;15.77;;;8.75;;
34278;SDS011;20538;51.528;9.942;2023-04-30T00:55:44;21.15;;;9.45;;
34278;SDS011;20538;51.528;9.942;2023-04-30T00:58:10;16.45;;;7.82;;
34278;SDS011;20538;51.528;9.942;2023-04-30T01:00:36;17.50;;;8.20;;
34278;SDS011;20538;51.528;9.942;2023-04-30T01:03:02;21.50;;;8.45;;
34278;SDS011;20538;51.528;9.942;2023-04-30T01:05:28;17.10;;;8.65;;
34278;SDS011;20538;51.528;9.942;2023-04-30T01:07:54;18.10;;;9.13;;
34278;SDS011;20538;51.528;9.942;2023-04-30T01:10:21;21.60;;;9.15;;
34278;SDS011;20538;51.528;9.942;2023-04-30T01:12:55;16.17;;;8.45;;
34278;SDS011;20538;51.528;9.942;2023-04-30T01:15:41;18.45;;;8.65;;
34278;SDS011;20538;51.528;9.942;2023-04-30T01:18:33;15.50;;;8.55;;
34278;SDS011;20538;51.528;9.942;2023-04-30T01:21:05;16.52;;;9.20;;
34278;SDS011;20538;51.528;9.942;2023-04-30T01:26:58;19.50;;;8.65;;
34278;SDS011;20538;51.528;9.942;2023-04-30T01:29:37;17.70;;;8.77;;
34278;SDS011;20538;51.528;9.942;2023-04-30T01:32:05;19.65;;;9.60;;
34278;SDS011;20538;51.528;9.942;2023-04-30T01:34:31;17.15;;;9.35;;
34278;SDS011;20538;51.528;9.942;2023-04-30T01:40:13;20.80;;;10.73;;
34278;SDS011;20538;51.528;9.942;2023-04-30T01:43:08;19.55;;;11.23;;
34278;SDS011;20538;51.528;9.942;2023-04-30T01:48:24;18.70;;;9.82;;
34278;SDS011;20538;51.528;9.942;2023-04-30T01:53:40;21.65;;;10.25;;
34278;SDS011;20538;51.528;9.942;2023-04-30T01:56:30;19.10;;;10.07;;
34278;SDS011;20538;51.528;9.942;2023-04-30T02:09:51;18.23;;;11.10;;
34278;SDS011;20538;51.528;9.942;2023-04-30T02:16:39;22.25;;;9.82;;
34278;SDS011;20538;51.528;9.942;2023-04-30T02:23:32;15.52;;;8.75;;
34278;SDS011;20538;51.528;9.942;2023-04-30T02:33:36;19.30;;;7.93;;
34278;SDS011;20538;51.528;9.942;2023-04-30T02:50:46;18.45;;;9.05;;
34278;SDS011;20538;51.528;9.942;2023-04-30T02:53:36;18.65;;;9.32;;
34278;SDS011;20538;51.528;9.942;2023-04-30T02:56:56;20.10;;;9.63;;
34278;SDS011;20538;51.528;9.942;2023-04-30T02:59:57;26.80;;;11.73;;
34278;SDS011;20538;51.528;9.942;2023-04-30T03:02:52;21.90;;;11.80;;
34278;SDS011;20538;51.528;9.942;2023-04-30T03:05:22;18.23;;;11.27;;
34278;SDS011;20538;51.528;9.942;2023-04-30T03:17:58;18.23;;;10.13;;
34278;SDS011;20538;51.528;9.942;2023-04-30T03:24:17;21.30;;;10.20;;
34278;SDS011;20538;51.528;9.942;2023-04-30T03:27:14;23.63;;;12.10;;
34278;SDS011;20538;51.528;9.942;2023-04-30T03:30:15;21.20;;;11.32;;
34278;SDS011;20538;51.528;9.942;2023-04-30T03:33:02;30.05;;;13.05;;
34278;SDS011;20538;51.528;9.942;2023-04-30T03:36:06;28.65;;;14.45;;
34278;SDS011;20538;51.528;9.942;2023-04-30T03:38:32;27.20;;;15.40;;
34278;SDS011;20538;51.528;9.942;2023-04-30T03:40:58;28.17;;;15.73;;
34278;SDS011;20538;51.528;9.942;2023-04-30T03:43:24;29.30;;;15.38;;
34278;SDS011;20538;51.528;9.942;2023-04-30T03:45:49;28.45;;;15.85;;
34278;SDS011;20538;51.528;9.942;2023-04-30T03:48:16;29.38;;;15.48;;
34278;SDS011;20538;51.528;9.942;2023-04-30T03:50:42;28.88;;;15.90;;
34278;SDS011;20538;51.528;9.942;2023-04-30T03:53:08;31.85;;;15.90;;
34278;SDS011;20538;51.528;9.942;2023-04-30T03:55:37;27.13;;;14.77;;
34278;SDS011;20538;51.528;9.942;2023-04-30T03:58:03;28.30;;;14.00;;
34278;SDS011;20538;51.528;9.942;2023-04-30T04:00:29;27.27;;;13.95;;
34278;SDS011;20538;51.528;9.942;2023-04-30T04:02:56;24.85;;;14.45;;
34278;SDS011;20538;51.528;9.942;2023-04-30T04:05:23;22.55;;;13.45;;
34278;SDS011;20538;51.528;9.942;2023-04-30T04:07:49;28.02;;;14.50;;
34278;SDS011;20538;51.528;9.942;2023-04-30T04:10:15;23.42;;;13.80;;
34278;SDS011;20538;51.528;9.942;2023-04-30T04:12:42;25.88;;;12.73;;
34278;SDS011;20538;51.528;9.942;2023-04-30T04:15:08;21.23;;;12.57;;
34278;SDS011;20538;51.528;9.942;2023-04-30T04:17:34;20.70;;;11.75;;
34278;SDS011;20538;51.528;9.942;2023-04-30T04:20:00;18.35;;;11.30;;
34278;SDS011;20538;51.528;9.942;2023-04-30T04:22:26;21.35;;;11.63;;
34278;SDS011;20538;51.528;9.942;2023-04-30T04:24:54;21.55;;;11.50;;
34278;SDS011;20538;51.528;9.942;2023-04-30T04:27:20;27.70;;;12.10;;
34278;SDS011;20538;51.528;9.942;2023-04-30T04:29:46;22.70;;;12.57;;
34278;SDS011;20538;51.528;9.942;2023-04-30T04:32:12;22.48;;;13.18;;
34278;SDS011;20538;51.528;9.942;2023-04-30T04:34:38;29.55;;;13.55;;
34278;SDS011;20538;51.528;9.942;2023-04-30T04:37:04;25.23;;;12.75;;
34278;SDS011;20538;51.528;9.942;2023-04-30T04:39:30;27.05;;;14.70;;
34278;SDS011;20538;51.528;9.942;2023-04-30T04:42:03;24.45;;;13.70;;
34278;SDS011;20538;51.528;9.942;2023-04-30T04:44:29;24.38;;;13.00;;
34278;SDS011;20538;51.528;9.942;2023-04-30T04:46:55;20.20;;;11.05;;
34278;SDS011;20538;51.528;9.942;2023-04-30T04:49:23;20.45;;;12.25;;
34278;SDS011;20538;51.528;9.942;2023-04-30T04:51:49;23.73;;;11.65;;
34278;SDS011;20538;51.528;9.942;2023-04-30T04:54:15;19.85;;;11.35;;
34278;SDS011;20538;51.528;9.942;2023-04-30T04:56:41;24.77;;;11.75;;
34278;SDS011;20538;51.528;9.942;2023-04-30T04:59:07;22.92;;;10.25;;
34278;SDS011;20538;51.528;9.942;2023-04-30T05:01:36;14.25;;;8.77;;
34278;SDS011;20538;51.528;9.942;2023-04-30T05:04:02;14.23;;;7.78;;
34278;SDS011;20538;51.528;9.942;2023-04-30T05:06:28;15.20;;;7.50;;
34278;SDS011;20538;51.528;9.942;2023-04-30T05:08:54;13.07;;;6.20;;
34278;SDS011;20538;51.528;9.942;2023-04-30T05:11:20;14.95;;;6.80;;
34278;SDS011;20538;51.528;9.942;2023-04-30T05:13:54;13.70;;;7.20;;
34278;SDS011;20538;51.528;9.942;2023-04-30T05:16:22;24.85;;;11.75;;
34278;SDS011;20538;51.528;9.942;2023-04-30T05:18:50;31.30;;;11.73;;
34278;SDS011;20538;51.528;9.942;2023-04-30T05:21:19;20.38;;;9.90;;
34278;SDS011;20538;51.528;9.942;2023-04-30T05:23:45;14.93;;;9.20;;
34278;SDS011;20538;51.528;9.942;2023-04-30T05:26:11;13.00;;;8.00;;
34278;SDS011;20538;51.528;9.942;2023-04-30T05:28:37;15.68;;;8.52;;
34278;SDS011;20538;51.528;9.942;2023-04-30T05:31:03;16.05;;;9.05;;
34278;SDS011;20538;51.528;9.942;2023-04-30T05:33:28;14.27;;;9.20;;
34278;SDS011;20538;51.528;9.942;2023-04-30T05:35:54;18.25;;;9.20;;
34278;SDS011;20538;51.528;9.942;2023-04-30T05:38:20;14.38;;;9.48;;
34278;SDS011;20538;51.528;9.942;2023-04-30T05:40:46;14.52;;;8.73;;
34278;SDS011;20538;51.528;9.942;2023-04-30T05:43:12;17.25;;;9.38;;
34278;SDS011;20538;51.528;9.942;2023-04-30T05:45:38;18.92;;;9.95;;
34278;SDS011;20538;51.528;9.942;2023-04-30T05:48:04;15.57;;;10.07;;
34278;SDS011;20538;51.528;9.942;2023-04-30T05:50:30;17.23;;;9.68;;
34278;SDS011;20538;51.528;9.942;2023-04-30T05:52:59;15.57;;;9.65;;
34278;SDS011;20538;51.528;9.942;2023-04-30T05:55:25;13.90;;;8.57;;
34278;SDS011;20538;51.528;9.942;2023-04-30T05:57:51;20.45;;;10.05;;
34278;SDS011;20538;51.528;9.942;2023-04-30T06:00:17;14.95;;;9.32;;
34278;SDS011;20538;51.528;9.942;2023-04-30T06:02:43;16.48;;;9.55;;
34278;SDS011;20538;51.528;9.942;2023-04-30T06:05:09;18.67;;;9.52;;
34278;SDS011;20538;51.528;9.942;2023-04-30T06:07:35;19.60;;;10.32;;
34278;SDS011;20538;51.528;9.942;2023-04-30T06:10:01;16.35;;;8.48;;
34278;SDS011;20538;51.528;9.942;2023-04-30T06:12:28;17.08;;;8.43;;
34278;SDS011;20538;51.528;9.942;2023-04-30T06:14:54;20.52;;;8.90;;
34278;SDS011;20538;51.528;9.942;2023-04-30T06:17:20;17.42;;;8.88;;
34278;SDS011;20538;51.528;9.942;2023-04-30T06:19:46;19.88;;;6.55;;
34278;SDS011;20538;51.528;9.942;2023-04-30T06:22:12;17.17;;;7.10;;
34278;SDS011;20538;51.528;9.942;2023-04-30T06:24:37;16.15;;;6.03;;
34278;SDS011;20538;51.528;9.942;2023-04-30T06:27:03;17.30;;;6.55;;
34278;SDS011;20538;51.528;9.942;2023-04-30T06:29:29;16.20;;;5.88;;
34278;SDS011;20538;51.528;9.942;2023-04-30T06:31:55;16.95;;;6.93;;
34278;SDS011;20538;51.528;9.942;2023-04-30T06:34:21;14.68;;;6.47;;
34278;SDS011;20538;51.528;9.942;2023-04-30T06:36:47;23.77;;;7.18;;
34278;SDS011;20538;51.528;9.942;2023-04-30T06:39:16;24.70;;;7.43;;
34278;SDS011;20538;51.528;9.942;2023-04-30T06:41:45;14.15;;;5.80;;
34278;SDS011;20538;51.528;9.942;2023-04-30T06:44:11;13.40;;;5.22;;
34278;SDS011;20538;51.528;9.942;2023-04-30T06:46:37;21.15;;;6.40;;
34278;SDS011;20538;51.528;9.942;2023-04-30T06:49:03;20.83;;;6.97;;
34278;SDS011;20538;51.528;9.942;2023-04-30T06:51:29;15.73;;;6.68;;
34278;SDS011;20538;51.528;9.942;2023-04-30T06:53:55;14.15;;;5.43;;
34278;SDS011;20538;51.528;9.942;2023-04-30T06:56:23;16.90;;;6.15;;
34278;SDS011;20538;51.528;9.942;2023-04-30T06:58:49;12.38;;;5.78;;
34278;SDS011;20538;51.528;9.942;2023-04-30T07:01:15;18.83;;;5.97;;
34278;SDS011;20538;51.528;9.942;2023-04-30T07:03:41;17.40;;;5.35;;
34278;SDS011;20538;51.528;9.942;2023-04-30T07:06:07;12.15;;;5.22;;
34278;SDS011;20538;51.528;9.942;2023-04-30T07:08:33;11.77;;;5.28;;
34278;SDS011;20538;51.528;9.942;2023-04-30T07:10:59;14.70;;;5.32;;
34278;SDS011;20538;51.528;9.942;2023-04-30T07:13:27;11.73;;;5.30;;
34278;SDS011;20538;51.528;9.942;2023-04-30T07:15:56;18.25;;;5.05;;
34278;SDS011;20538;51.528;9.942;2023-04-30T07:18:23;15.90;;;4.88;;
34278;SDS011;20538;51.528;9.942;2023-04-30T07:20:49;18.50;;;5.50;;
34278;SDS011;20538;51.528;9.942;2023-04-30T07:23:18;12.82;;;5.32;;
34278;SDS011;20538;51.528;9.942;2023-04-30T07:25:44;14.13;;;4.60;;
34278;SDS011;20538;51.528;9.942;2023-04-30T07:28:10;12.77;;;4.47;;
34278;SDS011;20538;51.528;9.942;2023-04-30T07:30:36;16.23;;;4.35;;
34278;SDS011;20538;51.528;9.942;2023-04-30T07:33:01;10.45;;;4.18;;
34278;SDS011;20538;51.528;9.942;2023-04-30T07:35:27;16.15;;;4.38;;
34278;SDS011;20538;51.528;9.942;2023-04-30T07:37:53;13.65;;;4.10;;
34278;SDS011;20538;51.528;9.942;2023-04-30T07:40:19;13.38;;;4.90;;
34278;SDS011;20538;51.528;9.942;2023-04-30T07:42:45;16.15;;;4.43;;
34278;SDS011;20538;51.528;9.942;2023-04-30T07:45:11;16.80;;;4.20;;
34278;SDS011;20538;51.528;9.942;2023-04-30T07:47:37;22.33;;;4.82;;
34278;SDS011;20538;51.528;9.942;2023-04-30T07:50:03;13.93;;;4.07;;
34278;SDS011;20538;51.528;9.942;2023-04-30T07:52:29;13.40;;;3.92;;
34278;SDS011;20538;51.528;9.942;2023-04-30T07:54:55;10.57;;;4.00;;
34278;SDS011;20538;51.528;9.942;2023-04-30T07:57:21;15.23;;;4.25;;
34278;SDS011;20538;51.528;9.942;2023-04-30T07:59:52;17.67;;;5.47;;
34278;SDS011;20538;51.528;9.942;2023-04-30T08:02:27;10.27;;;3.83;;
34278;SDS011;20538;51.528;9.942;2023-04-30T08:04:58;11.35;;;3.47;;
34278;SDS011;20538;51.528;9.942;2023-04-30T08:07:24;16.08;;;3.90;;
34278;SDS011;20538;51.528;9.942;2023-04-30T08:09:50;13.30;;;4.38;;
34278;SDS011;20538;51.528;9.942;2023-04-30T08:12:16;13.95;;;3.65;;
34278;SDS011;20538;51.528;9.942;2023-04-30T08:14:43;13.20;;;3.90;;
34278;SDS011;20538;51.528;9.942;2023-04-30T08:17:08;17.88;;;4.75;;
34278;SDS011;20538;51.528;9.942;2023-04-30T08:22:33;10.82;;;3.55;;
34278;SDS011;20538;51.528;9.942;2023-04-30T08:24:59;15.98;;;4.93;;
34278;SDS011;20538;51.528;9.942;2023-04-30T08:27:38;14.55;;;4.53;;
34278;SDS011;20538;51.528;9.942;2023-04-30T08:30:08;19.88;;;4.20;;
34278;SDS011;20538;51.528;9.942;2023-04-30T08:32:35;15.77;;;4.55;;
34278;SDS011;20538;51.528;9.942;2023-04-30T08:35:04;12.55;;;3.13;;
34278;SDS011;20538;51.528;9.942;2023-04-30T08:37:31;10.57;;;3.88;;
34278;SDS011;20538;51.528;9.942;2023-04-30T08:39:57;17.88;;;4.13;;
34278;SDS011;20538;51.528;9.942;2023-04-30T08:46:39;14.23;;;3.88;;
34278;SDS011;20538;51.528;9.942;2023-04-30T08:52:46;13.73;;;3.90;;
34278;SDS011;20538;51.528;9.942;2023-04-30T08:55:35;12.13;;;3.47;;
34278;SDS011;20538;51.528;9.942;2023-04-30T08:58:26;17.20;;;4.65;;
34278;SDS011;20538;51.528;9.942;2023-04-30T09:01:28;9.27;;;2.95;;
34278;SDS011;20538;51.528;9.942;2023-04-30T09:11:29;7.20;;;2.72;;
34278;SDS011;20538;51.528;9.942;2023-04-30T09:17:11;12.55;;;3.85;;
34278;SDS011;20538;51.528;9.942;2023-04-30T09:19:55;8.85;;;3.35;;
34278;SDS011;20538;51.528;9.942;2023-04-30T09:22:51;10.15;;;3.65;;
34278;SDS011;20538;51.528;9.942;2023-04-30T09:26:00;12.98;;;3.65;;
34278;SDS011;20538;51.528;9.942;2023-04-30T09:28:26;11.82;;;3.83;;
34278;SDS011;20538;51.528;9.942;2023-04-30T09:30:56;7.68;;;3.55;;
34278;SDS011;20538;51.528;9.942;2023-04-30T09:33:26;11.07;;;3.38;;
34278;SDS011;20538;51.528;9.942;2023-04-30T09:35:54;10.75;;;4.00;;
34278;SDS011;20538;51.528;9.942;2023-04-30T09:39:07;8.75;;;3.47;;
34278;SDS011;20538;51.528;9.942;2023-04-30T09:41:44;11.35;;;3.53;;
34278;SDS011;20538;51.528;9.942;2023-04-30T09:44:29;12.20;;;3.25;;
34278;SDS011;20538;51.528;9.942;2023-04-30T09:46:57;11.13;;;3.25;;
34278;SDS011;20538;51.528;9.942;2023-04-30T09:49:25;11.73;;;3.60;;
34278;SDS011;20538;51.528;9.942;2023-04-30T09:51:59;14.75;;;3.60;;
34278;SDS011;20538;51.528;9.942;2023-04-30T09:54:29;17.70;;;4.20;;
34278;SDS011;20538;51.528;9.942;2023-04-30T09:57:01;15.13;;;4.38;;
34278;SDS011;20538;51.528;9.942;2023-04-30T10:05:57;13.18;;;3.78;;
34278;SDS011;20538;51.528;9.942;2023-04-30T10:08:28;9.02;;;2.80;;
34278;SDS011;20538;51.528;9.942;2023-04-30T10:24:39;9.48;;;3.30;;
34278;SDS011;20538;51.528;9.942;2023-04-30T10:27:58;10.10;;;3.17;;
34278;SDS011;20538;51.528;9.942;2023-04-30T10:30:36;8.02;;;2.42;;
34278;SDS011;20538;51.528;9.942;2023-04-30T11:41:12;7.43;;;1.70;;
34278;SDS011;20538;51.528;9.942;2023-04-30T11:57:06;3.88;;;1.00;;
34278;SDS011;20538;51.528;9.942;2023-04-30T11:59:38;6.50;;;1.50;;
34278;SDS011;20538;51.528;9.942;2023-04-30T12:02:06;5.22;;;1.38;;
34278;SDS011;20538;51.528;9.942;2023-04-30T12:04:32;2.60;;;1.10;;
34278;SDS011;20538;51.528;9.942;2023-04-30T12:06:58;2.85;;;1.00;;
34278;SDS011;20538;51.528;9.942;2023-04-30T12:09:24;5.28;;;1.23;;
34278;SDS011;20538;51.528;9.942;2023-04-30T12:11:50;5.30;;;0.75;;
34278;SDS011;20538;51.528;9.942;2023-04-30T12:14:15;3.10;;;0.90;;
34278;SDS011;20538;51.528;9.942;2023-04-30T12:19:14;2.97;;;0.98;;
34278;SDS011;20538;51.528;9.942;2023-04-30T12:21:42;2.03;;;0.98;;
34278;SDS011;20538;51.528;9.942;2023-04-30T12:24:10;2.95;;;1.15;;
34278;SDS011;20538;51.528;9.942;2023-04-30T12:26:37;3.13;;;1.42;;
34278;SDS011;20538;51.528;9.942;2023-04-30T12:29:14;6.93;;;1.77;;
34278;SDS011;20538;51.528;9.942;2023-04-30T12:31:41;6.00;;;1.45;;
34278;SDS011;20538;51.528;9.942;2023-04-30T12:34:08;4.05;;;1.40;;
34278;SDS011;20538;51.528;9.942;2023-04-30T12:36:37;3.90;;;1.40;;
34278;SDS011;20538;51.528;9.942;2023-04-30T12:39:13;5.72;;;2.15;;
34278;SDS011;20538;51.528;9.942;2023-04-30T12:41:40;5.07;;;1.30;;
34278;SDS011;20538;51.528;9.942;2023-04-30T12:44:21;6.70;;;1.10;;
34278;SDS011;20538;51.528;9.942;2023-04-30T12:46:49;5.03;;;1.38;;
34278;SDS011;20538;51.528;9.942;2023-04-30T12:49:29;5.07;;;2.15;;
34278;SDS011;20538;51.528;9.942;2023-04-30T12:54:31;2.10;;;1.17;;
34278;SDS011;20538;51.528;9.942;2023-04-30T12:59:35;7.15;;;1.48;;
34278;SDS011;20538;51.528;9.942;2023-04-30T13:02:04;6.20;;;1.63;;
34278;SDS011;20538;51.528;9.942;2023-04-30T13:04:37;7.00;;;1.95;;
34278;SDS011;20538;51.528;9.942;2023-04-30T13:07:04;5.53;;;1.75;;
34278;SDS011;20538;51.528;9.942;2023-04-30T13:09:33;6.88;;;1.67;;
34278;SDS011;20538;51.528;9.942;2023-04-30T13:12:00;8.10;;;1.58;;
34278;SDS011;20538;51.528;9.942;2023-04-30T13:14:26;3.25;;;1.50;;
34278;SDS011;20538;51.528;9.942;2023-04-30T13:16:51;6.40;;;2.03;;
34278;SDS011;20538;51.528;9.942;2023-04-30T13:19:18;7.00;;;1.70;;
34278;SDS011;20538;51.528;9.942;2023-04-30T13:21:44;5.93;;;1.65;;
34278;SDS011;20538;51.528;9.942;2023-04-30T13:24:09;5.90;;;1.50;;
34278;SDS011;20538;51.528;9.942;2023-04-30T13:26:35;5.93;;;1.70;;
34278;SDS011;20538;51.528;9.942;2023-04-30T13:29:01;7.78;;;1.80;;
34278;SDS011;20538;51.528;9.942;2023-04-30T13:31:28;7.38;;;2.05;;
34278;SDS011;20538;51.528;9.942;2023-04-30T13:33:54;7.97;;;1.83;;
34278;SDS011;20538;51.528;9.942;2023-04-30T13:36:20;10.63;;;2.33;;
34278;SDS011;20538;51.528;9.942;2023-04-30T13:38:45;6.95;;;1.95;;
34278;SDS011;20538;51.528;9.942;2023-04-30T13:41:11;4.95;;;1.58;;
34278;SDS011;20538;51.528;9.942;2023-04-30T13:43:37;7.15;;;1.70;;
34278;SDS011;20538;51.528;9.942;2023-04-30T13:46:06;4.65;;;1.63;;
34278;SDS011;20538;51.528;9.942;2023-04-30T13:48:32;6.00;;;2.05;;
34278;SDS011;20538;51.528;9.942;2023-04-30T13:50:58;6.55;;;1.83;;
34278;SDS011;20538;51.528;9.942;2023-04-30T13:53:24;7.85;;;1.50;;
34278;SDS011;20538;51.528;9.942;2023-04-30T13:55:51;5.00;;;1.40;;
34278;SDS011;20538;51.528;9.942;2023-04-30T13:58:17;6.10;;;1.67;;
34278;SDS011;20538;51.528;9.942;2023-04-30T14:00:42;6.47;;;1.52;;
34278;SDS011;20538;51.528;9.942;2023-04-30T14:03:08;5.22;;;1.98;;
34278;SDS011;20538;51.528;9.942;2023-04-30T14:05:34;5.03;;;1.83;;
34278;SDS011;20538;51.528;9.942;2023-04-30T14:08:00;7.43;;;1.63;;
34278;SDS011;20538;51.528;9.942;2023-04-30T14:10:26;5.75;;;1.38;;
34278;SDS011;20538;51.528;9.942;2023-04-30T14:12:51;10.88;;;1.60;;
34278;SDS011;20538;51.528;9.942;2023-04-30T14:15:18;4.70;;;1.48;;
34278;SDS011;20538;51.528;9.942;2023-04-30T14:17:45;6.72;;;1.73;;
34278;SDS011;20538;51.528;9.942;2023-04-30T14:20:10;3.90;;;1.50;;
34278;SDS011;20538;51.528;9.942;2023-04-30T14:22:37;6.32;;;1.75;;
34278;SDS011;20538;51.528;9.942;2023-04-30T14:25:03;5.45;;;1.60;;
34278;SDS011;20538;51.528;9.942;2023-04-30T14:27:29;7.22;;;1.70;;
34278;SDS011;20538;51.528;9.942;2023-04-30T14:29:55;6.55;;;1.70;;
34278;SDS011;20538;51.528;9.942;2023-04-30T14:32:23;7.28;;;1.70;;
34278;SDS011;20538;51.528;9.942;2023-04-30T14:34:50;3.70;;;1.50;;
34278;SDS011;20538;51.528;9.942;2023-04-30T14:37:16;5.30;;;1.38;;
34278;SDS011;20538;51.528;9.942;2023-04-30T14:39:42;3.70;;;1.10;;
34278;SDS011;20538;51.528;9.942;2023-04-30T14:42:08;8.05;;;1.70;;
34278;SDS011;20538;51.528;9.942;2023-04-30T14:44:35;4.68;;;1.70;;
34278;SDS011;20538;51.528;9.942;2023-04-30T14:47:02;4.35;;;1.45;;
34278;SDS011;20538;51.528;9.942;2023-04-30T14:49:28;4.50;;;1.63;;
34278;SDS011;20538;51.528;9.942;2023-04-30T14:51:54;13.13;;;2.03;;
34278;SDS011;20538;51.528;9.942;2023-04-30T14:54:20;5.07;;;1.33;;
34278;SDS011;20538;51.528;9.942;2023-04-30T14:56:46;4.65;;;1.48;;
34278;SDS011;20538;51.528;9.942;2023-04-30T14:59:12;4.63;;;1.38;;
34278;SDS011;20538;51.528;9.942;2023-04-30T15:01:38;4.78;;;1.15;;
34278;SDS011;20538;51.528;9.942;2023-04-30T15:04:04;11.35;;;2.40;;
34278;SDS011;20538;51.528;9.942;2023-04-30T15:06:31;9.77;;;1.73;;
34278;SDS011;20538;51.528;9.942;2023-04-30T15:08:57;7.60;;;1.60;;
34278;SDS011;20538;51.528;9.942;2023-04-30T15:11:25;5.85;;;1.70;;
34278;SDS011;20538;51.528;9.942;2023-04-30T15:13:52;5.57;;;1.73;;
34278;SDS011;20538;51.528;9.942;2023-04-30T15:16:19;2.88;;;1.35;;
34278;SDS011;20538;51.528;9.942;2023-04-30T15:18:44;7.20;;;1.35;;
34278;SDS011;20538;51.528;9.942;2023-04-30T15:21:13;7.20;;;1.50;;
34278;SDS011;20538;51.528;9.942;2023-04-30T15:23:39;6.95;;;1.40;;
34278;SDS011;20538;51.528;9.942;2023-04-30T15:26:04;9.05;;;1.90;;
34278;SDS011;20538;51.528;9.942;2023-04-30T15:28:30;6.93;;;1.70;;
34278;SDS011;20538;51.528;9.942;2023-04-30T15:30:59;6.28;;;2.13;;
34278;SDS011;20538;51.528;9.942;2023-04-30T15:33:25;9.70;;;1.88;;
34278;SDS011;20538;51.528;9.942;2023-04-30T15:35:53;5.85;;;1.73;;
34278;SDS011;20538;51.528;9.942;2023-04-30T15:38:19;7.93;;;1.98;;
34278;SDS011;20538;51.528;9.942;2023-04-30T15:40:45;8.25;;;2.05;;
34278;SDS011;20538;51.528;9.942;2023-04-30T15:43:11;5.78;;;2.05;;
34278;SDS011;20538;51.528;9.942;2023-04-30T15:45:37;6.03;;;1.70;;
34278;SDS011;20538;51.528;9.942;2023-04-30T15:48:03;8.50;;;2.38;;
34278;SDS011;20538;51.528;9.942;2023-04-30T15:50:29;14.52;;;2.30;;
34278;SDS011;20538;51.528;9.942;2023-04-30T15:52:55;7.55;;;2.13;;
34278;SDS011;20538;51.528;9.942;2023-04-30T15:55:21;4.18;;;1.52;;
34278;SDS011;20538;51.528;9.942;2023-04-30T15:57:47;11.57;;;2.03;;
34278;SDS011;20538;51.528;9.942;2023-04-30T16:00:13;6.65;;;2.28;;
34278;SDS011;20538;51.528;9.942;2023-04-30T16:02:39;8.52;;;1.98;;
34278;SDS011;20538;51.528;9.942;2023-04-30T16:05:05;12.73;;;2.10;;
34278;SDS011;20538;51.528;9.942;2023-04-30T16:07:31;6.30;;;2.72;;
34278;SDS011;20538;51.528;9.942;2023-04-30T16:09:57;5.22;;;2.10;;
34278;SDS011;20538;51.528;9.942;2023-04-30T16:12:24;3.92;;;1.60;;
34278;SDS011;20538;51.528;9.942;2023-04-30T16:14:50;7.07;;;1.70;;
34278;SDS011;20538;51.528;9.942;2023-04-30T16:17:17;8.20;;;2.70;;
34278;SDS011;20538;51.528;9.942;2023-04-30T16:19:43;6.38;;;1.90;;
34278;SDS011;20538;51.528;9.942;2023-04-30T16:22:11;7.28;;;2.15;;
34278;SDS011;20538;51.528;9.942;2023-04-30T16:24:37;4.88;;;2.30;;
34278;SDS011;20538;51.528;9.942;2023-04-30T16:27:03;5.40;;;1.95;;
34278;SDS011;20538;51.528;9.942;2023-04-30T16:29:29;7.72;;;2.10;;
34278;SDS011;20538;51.528;9.942;2023-04-30T16:31:55;4.55;;;2.10;;
34278;SDS011;20538;51.528;9.942;2023-04-30T16:34:21;5.18;;;1.92;;
34278;SDS011;20538;51.528;9.942;2023-04-30T16:36:47;5.70;;;2.10;;
34278;SDS011;20538;51.528;9.942;2023-04-30T16:39:12;5.80;;;2.10;;
34278;SDS011;20538;51.528;9.942;2023-04-30T16:41:38;7.72;;;2.50;;
34278;SDS011;20538;51.528;9.942;2023-04-30T16:44:04;5.53;;;2.60;;
34278;SDS011;20538;51.528;9.942;2023-04-30T16:46:30;8.15;;;2.42;;
34278;SDS011;20538;51.528;9.942;2023-04-30T16:48:56;6.25;;;1.90;;
34278;SDS011;20538;51.528;9.942;2023-04-30T16:51:22;6.13;;;2.40;;
34278;SDS011;20538;51.528;9.942;2023-04-30T16:53:47;4.68;;;2.05;;
34278;SDS011;20538;51.528;9.942;2023-04-30T16:56:13;6.20;;;2.20;;
34278;SDS011;20538;51.528;9.942;2023-04-30T16:58:42;6.88;;;2.15;;
34278;SDS011;20538;51.528;9.942;2023-04-30T17:01:07;3.28;;;1.95;;
34278;SDS011;20538;51.528;9.942;2023-04-30T17:03:33;4.28;;;1.90;;
34278;SDS011;20538;51.528;9.942;2023-04-30T17:05:59;4.60;;;2.00;;
34278;SDS011;20538;51.528;9.942;2023-04-30T17:08:24;4.55;;;2.20;;
34278;SDS011;20538;51.528;9.942;2023-04-30T17:10:50;4.53;;;2.13;;
34278;SDS011;20538;51.528;9.942;2023-04-30T17:13:16;11.85;;;3.22;;
34278;SDS011;20538;51.528;9.942;2023-04-30T17:15:42;5.97;;;2.10;;
34278;SDS011;20538;51.528;9.942;2023-04-30T17:18:08;11.52;;;2.53;;
34278;SDS011;20538;51.528;9.942;2023-04-30T17:20:34;7.90;;;2.20;;
34278;SDS011;20538;51.528;9.942;2023-04-30T17:23:00;4.70;;;2.00;;
34278;SDS011;20538;51.528;9.942;2023-04-30T17:25:26;6.32;;;2.20;;
34278;SDS011;20538;51.528;9.942;2023-04-30T17:27:54;11.35;;;2.40;;
34278;SDS011;20538;51.528;9.942;2023-04-30T17:30:20;5.65;;;2.10;;
34278;SDS011;20538;51.528;9.942;2023-04-30T17:32:46;9.07;;;2.15;;
34278;SDS011;20538;51.528;9.942;2023-04-30T17:35:12;4.80;;;1.90;;
34278;SDS011;20538;51.528;9.942;2023-04-30T17:37:38;7.20;;;2.25;;
34278;SDS011;20538;51.528;9.942;2023-04-30T17:40:04;6.45;;;2.53;;
34278;SDS011;20538;51.528;9.942;2023-04-30T17:42:34;7.38;;;2.30;;
34278;SDS011;20538;51.528;9.942;2023-04-30T17:45:00;11.00;;;2.50;;
34278;SDS011;20538;51.528;9.942;2023-04-30T17:47:26;8.32;;;2.60;;
34278;SDS011;20538;51.528;9.942;2023-04-30T17:49:52;5.93;;;2.17;;
34278;SDS011;20538;51.528;9.942;2023-04-30T17:52:17;7.60;;;2.72;;
34278;SDS011;20538;51.528;9.942;2023-04-30T17:54:43;6.85;;;2.60;;
34278;SDS011;20538;51.528;9.942;2023-04-30T17:57:09;14.40;;;2.80;;
34278;SDS011;20538;51.528;9.942;2023-04-30T17:59:34;5.53;;;2.22;;
34278;SDS011;20538;51.528;9.942;2023-04-30T18:02:02;7.22;;;2.20;;
34278;SDS011;20538;51.528;9.942;2023-04-30T18:04:29;4.78;;;2.15;;
34278;SDS011;20538;51.528;9.942;2023-04-30T18:06:55;7.65;;;2.67;;